Time;durP1;ratioP1;P1;durP2;ratioP2;P2;SDS_P1;SDS_P2;PMS_P1;PMS_P2;Temp;Humidity;BMP_temperature;BMP_pressure;BME280_temperature;BME280_humidity;BME280_pressure;Samples;Min_cycle;Max_cycle;Signal;HPM_P1;HPM_P2
2022/07/05 00:02:13;;;;;;;10.85;5.82;;;14.40;99.90;;;;;;5078071;28;20052;-78
2022/07/05 00:04:39;;;;;;;11.73;5.28;;;14.40;99.90;;;;;;5078435;28;20090;-78
2022/07/05 00:07:20;;;;;;;10.20;5.57;;;14.40;99.90;;;;;;5079925;28;20433;-78
2022/07/05 00:09:50;;;;;;;12.60;5.75;;;14.40;99.90;;;;;;5077176;28;20407;-78
2022/07/05 00:12:17;;;;;;;13.45;6.03;;;14.30;99.90;;;;;;5079009;28;20119;-78
2022/07/05 00:14:45;;;;;;;11.40;5.90;;;14.30;99.90;;;;;;5078127;28;20053;-78
2022/07/05 00:17:12;;;;;;;10.13;5.53;;;14.30;99.90;;;;;;5076931;28;20471;-78
2022/07/05 00:19:38;;;;;;;12.25;5.38;;;14.30;99.90;;;;;;5077015;28;20057;-78
2022/07/05 00:22:04;;;;;;;10.30;5.85;;;14.20;99.90;;;;;;5078787;28;20059;-78
2022/07/05 00:24:30;;;;;;;8.80;5.85;;;14.20;99.90;;;;;;5076696;28;20036;-78
2022/07/05 00:26:55;;;;;;;9.77;5.50;;;14.20;99.90;;;;;;5077718;28;20040;-78
2022/07/05 00:29:21;;;;;;;10.70;5.43;;;14.20;99.90;;;;;;5077707;28;20052;-78
2022/07/05 00:31:47;;;;;;;11.05;5.55;;;14.20;99.90;;;;;;5076817;28;20044;-78
2022/07/05 00:34:13;;;;;;;11.07;6.00;;;14.10;99.90;;;;;;5078005;28;20051;-78
2022/07/05 00:36:39;;;;;;;10.10;5.32;;;14.20;99.90;;;;;;5076825;28;20041;-78
2022/07/05 00:39:05;;;;;;;13.02;5.93;;;14.10;99.90;;;;;;5077582;28;20124;-78
2022/07/05 00:41:31;;;;;;;12.18;5.45;;;14.10;99.90;;;;;;5078495;28;20084;-78
2022/07/05 00:44:09;;;;;;;9.48;5.70;;;14.10;99.90;;;;;;5080763;28;20119;-78
2022/07/05 00:46:35;;;;;;;10.27;5.70;;;14.10;99.90;;;;;;5077347;28;20517;-78
2022/07/05 00:49:02;;;;;;;10.13;5.88;;;14.00;99.90;;;;;;5076740;28;20094;-78
2022/07/05 00:51:34;;;;;;;10.48;5.95;;;14.10;99.90;;;;;;5074864;28;20052;-78
2022/07/05 00:54:00;;;;;;;9.50;6.18;;;14.00;99.90;;;;;;5077572;28;20044;-78
2022/07/05 00:56:26;;;;;;;10.57;6.25;;;14.00;99.90;;;;;;5077052;28;20040;-78
2022/07/05 00:58:52;;;;;;;11.35;6.28;;;14.00;99.90;;;;;;5075975;28;20376;-78
2022/07/05 01:01:19;;;;;;;9.05;6.07;;;14.00;99.90;;;;;;5077510;28;20045;-77
2022/07/05 01:03:45;;;;;;;11.35;6.65;;;14.00;99.90;;;;;;5076630;28;20036;-78
2022/07/05 01:06:12;;;;;;;10.25;6.57;;;14.00;99.90;;;;;;5077026;28;20067;-78
2022/07/05 01:08:39;;;;;;;9.55;5.90;;;14.00;99.90;;;;;;5076006;28;20052;-78
2022/07/05 01:11:08;;;;;;;11.05;5.95;;;14.00;99.90;;;;;;5077430;28;20045;-78
2022/07/05 01:13:35;;;;;;;13.18;6.80;;;14.00;99.90;;;;;;5075151;28;20068;-78
2022/07/05 01:16:02;;;;;;;12.52;6.55;;;13.90;99.90;;;;;;5076207;28;20041;-78
2022/07/05 01:18:28;;;;;;;10.98;6.63;;;13.90;99.90;;;;;;5076630;28;20045;-78
2022/07/05 01:20:54;;;;;;;8.65;6.35;;;13.90;99.90;;;;;;5078335;28;20080;-78
2022/07/05 01:23:21;;;;;;;10.23;6.32;;;13.80;99.90;;;;;;5076359;28;20434;-78
2022/07/05 01:25:53;;;;;;;10.02;6.57;;;13.70;99.90;;;;;;5077803;28;20066;-78
2022/07/05 01:28:20;;;;;;;9.40;6.03;;;13.80;99.90;;;;;;5079684;28;20041;-78
2022/07/05 01:30:47;;;;;;;12.77;6.57;;;13.80;99.90;;;;;;5075971;28;20483;-78
2022/07/05 01:33:13;;;;;;;9.63;6.95;;;13.70;99.90;;;;;;5075842;28;20071;-78
2022/07/05 01:35:39;;;;;;;11.82;6.40;;;13.70;99.90;;;;;;5076525;28;20107;-78
2022/07/05 01:38:05;;;;;;;11.18;6.55;;;13.70;99.90;;;;;;5076752;28;20174;-78
2022/07/05 01:40:31;;;;;;;11.82;6.20;;;13.70;99.90;;;;;;5075986;28;20123;-78
2022/07/05 01:42:57;;;;;;;14.55;6.53;;;13.60;99.90;;;;;;5076185;28;20044;-78
2022/07/05 01:45:44;;;;;;;10.40;6.70;;;13.70;99.90;;;;;;5076115;28;20131;-78
2022/07/05 01:48:12;;;;;;;10.52;6.00;;;13.70;99.90;;;;;;5077031;28;20047;-78
2022/07/05 01:50:47;;;;;;;12.48;7.10;;;13.60;99.90;;;;;;5077963;28;20057;-78
2022/07/05 01:53:22;;;;;;;11.45;6.53;;;13.50;99.90;;;;;;5075768;28;20094;-78
2022/07/05 01:55:47;;;;;;;10.90;6.78;;;13.50;99.90;;;;;;5077310;28;20487;-78
2022/07/05 01:58:13;;;;;;;13.00;6.43;;;13.40;99.90;;;;;;5076230;28;20076;-78
2022/07/05 02:00:48;;;;;;;13.07;7.32;;;13.40;99.90;;;;;;5075949;28;20055;-78
2022/07/05 02:03:15;;;;;;;12.00;7.30;;;13.40;99.90;;;;;;5077189;28;20440;-78
2022/07/05 02:05:42;;;;;;;11.75;7.18;;;13.40;99.90;;;;;;5079234;28;20464;-78
2022/07/05 02:08:07;;;;;;;13.10;7.28;;;13.40;99.90;;;;;;5076706;28;20375;-78
2022/07/05 02:10:35;;;;;;;11.85;7.65;;;13.40;99.90;;;;;;5076231;28;20084;-78
2022/07/05 02:13:01;;;;;;;14.70;7.45;;;13.40;99.90;;;;;;5092349;28;20106;-78
2022/07/05 02:15:31;;;;;;;14.45;8.30;;;13.40;99.90;;;;;;5075119;28;20121;-78
2022/07/05 02:17:57;;;;;;;14.32;7.43;;;13.40;99.90;;;;;;5077522;28;20063;-78
2022/07/05 02:20:23;;;;;;;13.90;7.40;;;13.30;99.90;;;;;;5076787;28;20395;-78
2022/07/05 02:22:48;;;;;;;12.00;8.32;;;13.40;99.90;;;;;;5077312;28;20044;-78
2022/07/05 02:25:14;;;;;;;14.00;7.20;;;13.40;99.90;;;;;;5077047;28;20049;-78
2022/07/05 02:27:39;;;;;;;12.38;6.85;;;13.30;99.90;;;;;;5076543;28;20058;-78
2022/07/05 02:30:06;;;;;;;11.88;6.82;;;13.30;99.90;;;;;;5075441;28;20041;-78
2022/07/05 02:32:32;;;;;;;13.82;6.68;;;13.40;99.90;;;;;;5076900;28;20131;-78
2022/07/05 02:34:58;;;;;;;10.77;6.88;;;13.30;99.90;;;;;;5077209;28;20094;-78
2022/07/05 02:37:24;;;;;;;16.92;7.43;;;13.40;99.90;;;;;;5075757;28;20052;-78
2022/07/05 02:39:49;;;;;;;11.13;6.93;;;13.30;99.90;;;;;;5094536;28;20097;-78
2022/07/05 02:42:15;;;;;;;11.45;7.07;;;13.30;99.90;;;;;;5076725;28;20106;-78
2022/07/05 02:44:41;;;;;;;13.05;7.50;;;13.30;99.90;;;;;;5076444;28;20037;-78
2022/07/05 02:47:06;;;;;;;12.35;7.22;;;13.30;99.90;;;;;;5076779;28;20424;-78
2022/07/05 02:49:32;;;;;;;15.73;6.78;;;13.30;99.90;;;;;;5080683;28;20032;-78
2022/07/05 02:51:57;;;;;;;13.70;6.82;;;13.30;99.90;;;;;;5081190;28;20036;-78
2022/07/05 02:54:23;;;;;;;11.00;6.40;;;13.20;99.90;;;;;;5079754;28;20056;-78
2022/07/05 02:56:49;;;;;;;9.98;6.25;;;13.30;99.90;;;;;;5082411;28;20042;-78
2022/07/05 02:59:14;;;;;;;11.30;6.70;;;13.30;99.90;;;;;;5097553;28;20043;-78
2022/07/05 03:01:40;;;;;;;13.00;7.55;;;13.40;99.90;;;;;;5080757;28;20075;-78
2022/07/05 03:04:06;;;;;;;13.15;6.95;;;13.30;99.90;;;;;;5080647;28;20068;-78
2022/07/05 03:06:32;;;;;;;13.40;6.47;;;13.40;99.90;;;;;;5078089;28;20448;-78
2022/07/05 03:08:58;;;;;;;11.88;6.50;;;13.40;99.90;;;;;;5076351;28;20076;-79
2022/07/05 03:11:24;;;;;;;9.73;6.60;;;13.40;99.90;;;;;;5075781;28;20127;-78
2022/07/05 03:13:49;;;;;;;10.25;6.47;;;13.40;99.90;;;;;;5074587;28;20126;-79
2022/07/05 03:16:15;;;;;;;14.27;6.72;;;13.40;99.90;;;;;;5077191;28;20097;-78
2022/07/05 03:18:40;;;;;;;12.50;6.63;;;13.40;99.90;;;;;;5076062;28;20476;-78
2022/07/05 03:21:06;;;;;;;9.07;5.88;;;13.40;99.90;;;;;;5076840;28;20061;-78
2022/07/05 03:23:32;;;;;;;10.43;5.88;;;13.40;99.90;;;;;;5077135;28;20048;-78
2022/07/05 03:25:57;;;;;;;14.57;5.22;;;13.50;99.90;;;;;;5076719;28;20052;-78
2022/07/05 03:28:23;;;;;;;11.00;5.50;;;13.50;99.90;;;;;;5075943;28;20044;-78
2022/07/05 03:30:49;;;;;;;10.10;5.85;;;13.50;99.90;;;;;;5092615;28;20502;-79
2022/07/05 03:33:14;;;;;;;12.23;5.90;;;13.50;99.90;;;;;;5076688;28;20380;-78
2022/07/05 03:35:40;;;;;;;7.53;5.60;;;13.60;99.90;;;;;;5076738;28;20041;-78
2022/07/05 03:38:06;;;;;;;9.45;4.93;;;13.60;99.90;;;;;;5092609;28;20054;-78
2022/07/05 03:40:31;;;;;;;9.48;5.28;;;13.60;99.90;;;;;;5075530;28;20394;-78
2022/07/05 03:42:57;;;;;;;9.70;4.85;;;13.60;99.90;;;;;;5076493;28;20439;-78
2022/07/05 03:45:23;;;;;;;11.80;5.60;;;13.60;99.90;;;;;;5092383;28;20051;-78
2022/07/05 03:47:48;;;;;;;9.75;5.30;;;13.70;99.90;;;;;;5075165;28;20049;-79
2022/07/05 03:50:14;;;;;;;11.85;5.80;;;13.70;99.90;;;;;;5076496;28;20490;-78
2022/07/05 03:52:40;;;;;;;9.77;5.20;;;13.70;99.90;;;;;;5076237;28;20044;-79
2022/07/05 03:55:06;;;;;;;12.95;5.68;;;13.70;99.90;;;;;;5076146;28;20052;-79
2022/07/05 03:57:31;;;;;;;11.50;5.40;;;13.70;99.90;;;;;;5075242;28;20551;-79
2022/07/05 03:59:57;;;;;;;11.23;6.07;;;13.70;99.90;;;;;;5075600;28;20036;-78
2022/07/05 04:02:23;;;;;;;13.00;6.10;;;13.70;99.90;;;;;;5075848;28;20541;-78
2022/07/05 04:04:48;;;;;;;9.65;5.72;;;13.60;99.90;;;;;;5091631;28;20136;-78
2022/07/05 04:07:14;;;;;;;10.32;6.30;;;13.70;99.90;;;;;;5076268;28;20493;-78
2022/07/05 04:09:40;;;;;;;10.82;5.45;;;13.60;99.90;;;;;;5075915;28;20067;-78
2022/07/05 04:12:06;;;;;;;9.38;5.72;;;13.60;99.90;;;;;;5076148;28;20052;-78
2022/07/05 04:14:32;;;;;;;12.98;6.05;;;13.60;99.90;;;;;;5076278;28;20040;-78
2022/07/05 04:16:57;;;;;;;11.85;7.00;;;13.60;99.90;;;;;;5076552;28;20041;-78
2022/07/05 04:19:23;;;;;;;14.45;6.90;;;13.60;99.90;;;;;;5075798;28;20045;-78
2022/07/05 04:21:49;;;;;;;11.40;6.22;;;13.60;99.90;;;;;;5075703;28;20446;-78
2022/07/05 04:24:14;;;;;;;14.60;6.85;;;13.70;99.90;;;;;;5076038;28;20045;-79
2022/07/05 04:26:40;;;;;;;9.32;6.55;;;13.60;99.90;;;;;;5075994;28;20132;-79
2022/07/05 04:29:06;;;;;;;11.90;6.47;;;13.60;99.90;;;;;;5075857;28;20036;-78
2022/07/05 04:31:31;;;;;;;10.32;6.93;;;13.70;99.90;;;;;;5075856;28;20471;-78
2022/07/05 04:33:57;;;;;;;11.13;6.80;;;13.70;99.90;;;;;;5074294;28;20070;-78
2022/07/05 04:36:23;;;;;;;10.57;5.93;;;13.80;99.90;;;;;;5075673;28;20051;-79
2022/07/05 04:38:48;;;;;;;12.45;6.13;;;13.90;99.90;;;;;;5075408;28;20427;-79
2022/07/05 04:41:14;;;;;;;17.98;6.60;;;14.00;99.90;;;;;;5075595;28;20406;-79
2022/07/05 04:43:39;;;;;;;10.45;5.72;;;14.20;99.90;;;;;;5075491;28;20043;-78
2022/07/05 04:46:05;;;;;;;9.85;5.45;;;14.30;99.90;;;;;;5075492;28;20127;-78
2022/07/05 04:48:31;;;;;;;10.18;5.95;;;14.30;99.90;;;;;;5075403;28;20482;-79
2022/07/05 04:50:57;;;;;;;11.88;5.95;;;14.50;99.90;;;;;;5074336;28;20048;-78
2022/07/05 04:53:22;;;;;;;12.13;5.97;;;14.50;99.90;;;;;;5073972;28;20048;-78
2022/07/05 04:55:48;;;;;;;13.98;6.22;;;14.60;99.90;;;;;;5090798;28;20083;-78
2022/07/05 04:58:14;;;;;;;10.35;6.03;;;14.80;99.90;;;;;;5090814;28;20044;-79
2022/07/05 05:00:39;;;;;;;13.75;5.80;;;14.90;99.90;;;;;;5075268;28;20047;-78
2022/07/05 05:03:05;;;;;;;10.13;6.10;;;15.00;99.90;;;;;;5074940;28;20040;-78
2022/07/05 05:05:30;;;;;;;11.35;5.85;;;15.10;99.90;;;;;;5073677;28;20459;-78
2022/07/05 05:07:56;;;;;;;9.75;5.55;;;15.30;99.90;;;;;;5074812;28;20127;-79
2022/07/05 05:10:22;;;;;;;10.95;6.07;;;15.40;99.90;;;;;;5075139;28;20124;-79
2022/07/05 05:12:48;;;;;;;11.32;5.00;;;15.60;99.90;;;;;;5073446;28;20080;-78
2022/07/05 05:15:13;;;;;;;11.88;4.75;;;15.70;99.90;;;;;;5074748;28;20076;-78
2022/07/05 05:17:41;;;;;;;8.55;4.63;;;15.90;99.90;;;;;;5074864;28;20087;-78
2022/07/05 05:20:11;;;;;;;14.05;4.70;;;15.90;99.90;;;;;;5074510;28;20061;-78
2022/07/05 05:22:37;;;;;;;14.75;5.70;;;15.90;99.90;;;;;;5074512;28;20401;-78
2022/07/05 05:25:03;;;;;;;14.73;4.95;;;15.90;99.90;;;;;;5074839;28;20480;-78
2022/07/05 05:27:29;;;;;;;14.32;5.00;;;15.90;99.90;;;;;;5074740;28;20090;-78
2022/07/05 05:29:55;;;;;;;13.30;5.28;;;15.80;99.90;;;;;;5074718;28;20045;-78
2022/07/05 05:32:20;;;;;;;14.23;5.18;;;15.80;99.90;;;;;;5074438;28;20102;-78
2022/07/05 05:34:46;;;;;;;9.70;4.47;;;15.80;99.90;;;;;;5074272;28;20037;-78
2022/07/05 05:37:12;;;;;;;13.98;4.68;;;15.80;99.90;;;;;;5074605;28;20048;-78
2022/07/05 05:39:37;;;;;;;13.77;4.40;;;15.70;99.90;;;;;;5074232;28;20123;-79
2022/07/05 05:42:03;;;;;;;10.80;4.55;;;15.70;99.90;;;;;;5074062;28;20040;-78
2022/07/05 05:44:29;;;;;;;10.32;3.92;;;15.70;99.90;;;;;;5090192;28;20440;-78
2022/07/05 05:46:54;;;;;;;10.18;4.60;;;15.90;99.90;;;;;;5074216;28;20127;-78
2022/07/05 05:49:20;;;;;;;11.27;4.70;;;16.20;99.90;;;;;;5074283;28;20120;-78
2022/07/05 05:51:46;;;;;;;8.57;4.13;;;16.40;99.90;;;;;;5073981;28;20044;-78
2022/07/05 05:54:11;;;;;;;12.65;4.60;;;16.60;99.90;;;;;;5073946;28;20028;-78
2022/07/05 05:56:38;;;;;;;10.73;4.25;;;16.80;99.90;;;;;;5072983;28;20048;-78
2022/07/05 05:59:04;;;;;;;6.57;3.60;;;17.10;99.90;;;;;;5073917;28;20040;-79
2022/07/05 06:01:30;;;;;;;10.30;3.83;;;17.30;99.90;;;;;;5073855;28;20048;-78
2022/07/05 06:03:55;;;;;;;14.20;3.75;;;17.40;99.90;;;;;;5073888;28;20513;-78
2022/07/05 06:06:21;;;;;;;10.32;4.53;;;17.70;99.90;;;;;;5074124;28;20036;-79
2022/07/05 06:08:47;;;;;;;12.02;3.72;;;17.80;99.90;;;;;;5089603;28;20402;-78
2022/07/05 06:11:13;;;;;;;9.98;3.53;;;17.90;99.90;;;;;;5072443;28;20098;-79
2022/07/05 06:13:39;;;;;;;9.57;3.67;;;18.10;99.90;;;;;;5089455;28;20045;-79
2022/07/05 06:16:09;;;;;;;14.65;3.22;;;18.10;99.90;;;;;;5072676;28;20056;-79
2022/07/05 06:18:35;;;;;;;17.15;3.17;;;18.30;99.90;;;;;;5089136;28;20400;-78
2022/07/05 06:21:01;;;;;;;7.68;2.88;;;18.40;99.90;;;;;;5073366;28;20045;-78
2022/07/05 06:23:27;;;;;;;8.45;2.90;;;18.50;99.90;;;;;;5073056;28;20066;-79
2022/07/05 06:25:52;;;;;;;11.05;2.53;;;18.70;99.90;;;;;;5073819;28;20149;-79
2022/07/05 06:28:18;;;;;;;8.40;2.50;;;18.80;99.90;;;;;;5073837;28;20119;-78
2022/07/05 06:30:43;;;;;;;10.25;2.50;;;18.80;99.90;;;;;;5073550;28;20509;-78
2022/07/05 06:33:09;;;;;;;6.97;2.55;;;18.60;99.90;;;;;;5073659;28;20128;-79
2022/07/05 06:35:35;;;;;;;11.88;2.20;;;18.40;99.90;;;;;;5073495;28;20127;-79
2022/07/05 06:38:03;;;;;;;8.77;2.00;;;18.40;99.90;;;;;;5072216;28;20463;-79
2022/07/05 06:40:34;;;;;;;11.38;2.28;;;18.40;99.90;;;;;;5073529;28;20052;-79
2022/07/05 06:43:02;;;;;;;4.97;2.03;;;18.40;99.90;;;;;;5073422;28;20125;-78
2022/07/05 06:45:28;;;;;;;14.27;2.97;;;18.60;99.90;;;;;;5073614;28;20040;-78
2022/07/05 06:48:02;;;;;;;5.90;1.80;;;18.90;99.90;;;;;;5073499;28;20174;-79
2022/07/05 06:50:29;;;;;;;7.10;2.13;;;19.20;99.90;;;;;;5073307;28;20438;-78
2022/07/05 06:52:55;;;;;;;4.88;1.75;;;19.50;99.90;;;;;;5073608;28;20045;-78
2022/07/05 06:55:22;;;;;;;12.45;2.00;;;19.70;99.90;;;;;;5073611;28;20372;-78
2022/07/05 06:57:48;;;;;;;11.18;2.22;;;19.30;99.90;;;;;;5073382;28;20074;-76
2022/07/05 07:00:15;;;;;;;13.45;2.30;;;19.00;99.90;;;;;;5073325;28;20040;-78
2022/07/05 07:02:41;;;;;;;13.13;2.40;;;18.70;99.90;;;;;;5073443;28;20044;-78
2022/07/05 07:05:08;;;;;;;8.52;2.85;;;18.50;99.90;;;;;;5072308;28;20041;-78
2022/07/05 07:10:18;;;;;;;13.55;2.60;;;18.40;99.90;;;;;;5083877;28;20044;-76
2022/07/05 07:12:44;;;;;;;10.88;2.53;;;18.20;99.90;;;;;;5073072;28;20039;-77
2022/07/05 07:15:10;;;;;;;8.95;2.25;;;18.30;99.90;;;;;;5073093;28;20041;-77
2022/07/05 07:17:36;;;;;;;11.00;2.42;;;18.20;99.90;;;;;;5073091;28;20039;-77
2022/07/05 07:20:02;;;;;;;10.32;2.00;;;18.20;99.90;;;;;;5072753;28;20414;-77
2022/07/05 07:22:28;;;;;;;9.45;2.15;;;18.20;99.90;;;;;;5072854;28;20060;-77
2022/07/05 07:24:54;;;;;;;7.40;1.88;;;18.20;99.90;;;;;;5072620;28;20044;-77
2022/07/05 07:27:20;;;;;;;7.82;2.08;;;18.20;99.90;;;;;;5072956;28;20047;-77
2022/07/05 07:29:45;;;;;;;10.10;2.10;;;18.30;99.90;;;;;;5072917;28;20083;-77
2022/07/05 07:32:11;;;;;;;7.82;1.88;;;18.30;99.90;;;;;;5072799;28;20388;-76
2022/07/05 07:34:37;;;;;;;11.00;2.40;;;18.50;99.90;;;;;;5072444;28;20445;-77
2022/07/05 07:37:04;;;;;;;10.93;2.58;;;18.70;99.90;;;;;;5076330;28;20051;-77
2022/07/05 07:39:31;;;;;;;8.65;1.80;;;18.90;99.90;;;;;;5076272;28;20081;-78
2022/07/05 07:42:00;;;;;;;13.18;2.70;;;19.00;99.90;;;;;;5076682;28;20048;-78
2022/07/05 07:44:26;;;;;;;9.43;2.00;;;18.80;99.90;;;;;;5076620;28;20390;-77
2022/07/05 07:46:52;;;;;;;9.52;2.65;;;18.70;99.90;;;;;;5076422;28;20048;-78
2022/07/05 07:49:18;;;;;;;11.73;3.15;;;18.60;99.90;;;;;;5076601;28;20040;-77
2022/07/05 07:51:43;;;;;;;10.15;2.33;;;18.40;99.90;;;;;;5075069;28;20044;-78
2022/07/05 07:54:10;;;;;;;10.40;2.17;;;18.10;99.90;;;;;;5076393;28;20040;-78
2022/07/05 07:56:35;;;;;;;10.02;2.97;;;18.00;99.90;;;;;;5075270;28;20401;-78
2022/07/05 07:59:01;;;;;;;8.43;2.42;;;17.80;99.90;;;;;;5076097;28;20471;-78
2022/07/05 08:01:27;;;;;;;6.30;1.65;;;17.70;99.90;;;;;;5076183;28;20128;-78
2022/07/05 08:03:53;;;;;;;8.75;1.75;;;17.70;99.90;;;;;;5076641;28;20037;-78
2022/07/05 08:06:19;;;;;;;10.80;2.25;;;17.60;99.90;;;;;;5076078;28;20087;-78
2022/07/05 08:08:45;;;;;;;5.97;2.08;;;17.60;99.90;;;;;;5075995;28;20072;-78
2022/07/05 08:11:12;;;;;;;10.43;2.55;;;17.60;99.90;;;;;;5076168;28;20076;-78
2022/07/05 08:13:40;;;;;;;10.55;2.40;;;17.60;99.90;;;;;;5076153;28;20052;-77
2022/07/05 08:16:06;;;;;;;8.07;2.20;;;17.60;99.90;;;;;;5076135;28;20146;-77
2022/07/05 08:21:32;;;;;;;10.55;3.38;;;17.70;99.90;;;;;;5075701;28;20517;-78
2022/07/05 08:23:59;;;;;;;11.60;2.35;;;17.70;99.90;;;;;;5075985;28;20043;-79
2022/07/05 08:26:25;;;;;;;9.27;2.00;;;17.80;99.90;;;;;;5075873;28;20044;-78
2022/07/05 08:28:51;;;;;;;6.68;2.03;;;17.90;99.90;;;;;;5075567;28;20437;-78
2022/07/05 08:31:17;;;;;;;8.52;2.22;;;18.00;99.90;;;;;;5074388;28;20048;-79
2022/07/05 08:33:43;;;;;;;9.68;2.45;;;18.10;99.90;;;;;;5075720;28;20094;-77
2022/07/05 08:36:09;;;;;;;10.57;2.22;;;18.10;99.90;;;;;;5075490;28;20131;-77
2022/07/05 08:38:34;;;;;;;5.85;1.98;;;18.00;99.90;;;;;;5075694;28;20044;-78
2022/07/05 08:41:01;;;;;;;5.10;1.98;;;18.00;99.90;;;;;;5075278;28;20067;-78
2022/07/05 08:43:28;;;;;;;9.77;2.33;;;17.90;99.90;;;;;;5075646;28;20052;-78
2022/07/05 08:45:54;;;;;;;8.35;2.05;;;17.90;99.90;;;;;;5075231;28;20041;-78
2022/07/05 08:48:23;;;;;;;12.60;2.50;;;17.90;99.90;;;;;;5075284;28;20049;-78
2022/07/05 08:50:52;;;;;;;12.80;2.42;;;17.90;99.90;;;;;;5075199;28;20083;-79
2022/07/05 08:53:21;;;;;;;9.70;2.10;;;18.00;99.90;;;;;;5078769;28;20040;-78
2022/07/05 08:55:47;;;;;;;8.70;2.20;;;17.90;99.90;;;;;;5082326;28;20617;-78
2022/07/05 08:58:13;;;;;;;11.30;2.50;;;18.00;99.90;;;;;;5075389;28;20115;-78
2022/07/05 09:00:40;;;;;;;9.57;2.30;;;18.00;99.90;;;;;;5074797;28;20055;-78
2022/07/05 09:03:06;;;;;;;7.93;2.25;;;17.90;99.90;;;;;;5073709;28;20070;-77
2022/07/05 09:05:41;;;;;;;10.23;2.58;;;17.90;99.90;;;;;;5073674;28;20044;-77
2022/07/05 09:08:09;;;;;;;8.30;2.42;;;17.90;99.90;;;;;;5075160;28;20123;-77
2022/07/05 09:10:37;;;;;;;9.20;2.70;;;17.90;99.90;;;;;;5075179;28;20045;-78
2022/07/05 09:13:03;;;;;;;10.18;2.55;;;18.00;99.90;;;;;;5074976;28;20032;-76
2022/07/05 09:15:29;;;;;;;6.15;2.20;;;18.00;99.90;;;;;;5073550;28;20388;-76
2022/07/05 09:17:55;;;;;;;7.85;2.97;;;18.00;99.90;;;;;;5079675;28;20376;-76
2022/07/05 09:20:21;;;;;;;7.43;2.55;;;18.10;99.90;;;;;;5094539;28;20509;-76
2022/07/05 09:22:53;;;;;;;5.45;2.05;;;18.20;99.90;;;;;;5093329;28;20119;-78
2022/07/05 09:25:23;;;;;;;6.82;2.33;;;18.20;99.90;;;;;;5092978;28;20036;-78
2022/07/05 09:28:06;;;;;;;8.63;2.17;;;18.20;99.90;;;;;;5092108;28;20566;-78
2022/07/05 09:30:38;;;;;;;8.40;3.33;;;18.30;99.90;;;;;;5092824;28;20032;-78
2022/07/05 09:33:12;;;;;;;6.80;1.80;;;18.50;99.90;;;;;;5092681;28;20040;-78
2022/07/05 09:35:40;;;;;;;6.93;1.80;;;18.60;99.90;;;;;;5094043;28;20048;-78
2022/07/05 09:38:15;;;;;;;9.52;2.20;;;18.60;99.90;;;;;;5094870;28;20047;-77
2022/07/05 09:40:53;;;;;;;8.98;2.28;;;18.50;99.90;;;;;;5094689;28;20043;-77
2022/07/05 09:43:21;;;;;;;6.18;1.92;;;18.50;99.90;;;;;;5093565;28;20040;-78
2022/07/05 09:45:54;;;;;;;7.10;2.38;;;18.40;99.90;;;;;;5094695;28;20123;-78
2022/07/05 09:48:20;;;;;;;8.25;2.15;;;18.70;99.90;;;;;;5093643;28;20390;-77
2022/07/05 09:50:46;;;;;;;8.75;2.03;;;19.10;99.90;;;;;;5094291;28;20041;-78
2022/07/05 09:53:11;;;;;;;7.03;1.83;;;19.30;99.90;;;;;;5087925;28;20105;-77
2022/07/05 09:55:38;;;;;;;6.55;1.73;;;19.30;99.90;;;;;;5083126;28;20047;-77
2022/07/05 09:58:04;;;;;;;8.45;2.22;;;19.30;99.90;;;;;;5071937;28;20479;-78
2022/07/05 10:00:30;;;;;;;7.68;2.05;;;19.20;99.90;;;;;;5072570;28;20040;-76
2022/07/05 10:03:03;;;;;;;10.48;2.28;;;19.10;99.90;;;;;;5076436;28;20051;-77
2022/07/05 10:05:33;;;;;;;8.95;1.95;;;19.40;99.90;;;;;;5083013;28;20033;-77
2022/07/05 10:08:01;;;;;;;9.38;1.70;;;19.70;99.90;;;;;;5074004;28;20089;-77
2022/07/05 10:10:31;;;;;;;4.88;1.60;;;19.60;99.90;;;;;;5072881;28;20049;-77
2022/07/05 10:13:02;;;;;;;7.32;1.73;;;19.90;99.90;;;;;;5072796;28;20071;-78
2022/07/05 10:15:33;;;;;;;12.02;2.45;;;20.00;99.90;;;;;;5073064;28;20040;-78
2022/07/05 10:18:08;;;;;;;6.13;2.25;;;19.80;99.90;;;;;;5073819;28;20056;-77
2022/07/05 10:20:37;;;;;;;7.60;2.70;;;19.70;99.90;;;;;;5072313;28;20491;-78
2022/07/05 10:23:04;;;;;;;7.68;2.72;;;19.50;99.90;;;;;;5076406;28;20078;-78
2022/07/05 10:25:30;;;;;;;7.40;1.52;;;19.30;99.90;;;;;;5082805;28;20113;-77
2022/07/05 10:27:58;;;;;;;10.05;2.10;;;19.50;99.90;;;;;;5072336;28;20049;-77
2022/07/05 10:30:24;;;;;;;6.93;2.47;;;19.30;99.90;;;;;;5073629;28;20116;-78
2022/07/05 10:32:51;;;;;;;6.13;1.70;;;19.40;99.90;;;;;;5073737;28;20045;-78
2022/07/05 10:35:18;;;;;;;11.45;2.13;;;19.60;99.90;;;;;;5073376;28;20040;-78
2022/07/05 10:37:45;;;;;;;9.95;2.17;;;19.90;99.90;;;;;;5072477;28;20398;-78
2022/07/05 10:40:11;;;;;;;8.10;2.33;;;20.10;99.90;;;;;;5073185;28;20044;-78
2022/07/05 10:42:54;;;;;;;14.68;2.42;;;20.30;99.90;;;;;;5072074;28;20079;-78
2022/07/05 10:45:38;;;;;;;6.72;2.10;;;20.50;99.90;;;;;;5073485;28;20067;-78
2022/07/05 10:48:18;;;;;;;9.38;2.92;;;20.70;99.90;;;;;;5073405;28;20433;-78
2022/07/05 10:50:53;;;;;;;6.15;2.20;;;20.90;99.90;;;;;;5073625;28;20049;-78
2022/07/05 10:53:23;;;;;;;6.05;2.13;;;20.80;99.90;;;;;;5073470;28;20068;-78
2022/07/05 10:55:57;;;;;;;10.32;2.60;;;20.50;99.90;;;;;;5073450;28;20048;-78
2022/07/05 10:58:39;;;;;;;9.48;2.47;;;20.60;99.90;;;;;;5072088;28;20546;-78
2022/07/05 11:01:20;;;;;;;11.70;2.60;;;20.90;99.90;;;;;;5073414;28;20041;-79
2022/07/05 11:04:14;;;;;;;8.65;2.20;;;20.90;99.90;;;;;;5073626;28;20576;-77
2022/07/05 11:06:42;;;;;;;9.30;2.10;;;21.00;99.90;;;;;;5070947;28;20559;-77
2022/07/05 11:09:14;;;;;;;10.20;2.63;;;20.90;99.90;;;;;;5073328;28;20119;-78
2022/07/05 11:12:01;;;;;;;8.35;2.47;;;21.00;99.90;;;;;;5075907;28;20052;-78
2022/07/05 11:14:30;;;;;;;10.35;1.75;;;21.10;99.90;;;;;;5077241;28;20041;-78
2022/07/05 11:17:22;;;;;;;8.75;1.70;;;21.00;99.90;;;;;;5077287;28;20048;-79
2022/07/05 11:20:07;;;;;;;7.00;2.13;;;20.70;99.90;;;;;;5076660;28;20478;-78
2022/07/05 11:22:35;;;;;;;5.82;2.35;;;20.30;99.90;;;;;;5077138;28;20136;-78
2022/07/05 11:25:02;;;;;;;7.50;1.90;;;20.20;99.90;;;;;;5075541;28;20120;-78
2022/07/05 11:27:28;;;;;;;3.10;1.38;;;19.90;99.90;;;;;;5076720;28;20449;-78
2022/07/05 11:29:55;;;;;;;6.90;1.88;;;19.90;99.90;;;;;;5076899;28;20487;-77
2022/07/05 11:32:22;;;;;;;5.13;1.77;;;19.70;99.90;;;;;;5076999;28;20127;-78
2022/07/05 11:34:53;;;;;;;6.43;1.30;;;19.70;99.90;;;;;;5077117;28;20111;-81
2022/07/05 11:37:28;;;;;;;4.15;1.23;;;19.70;99.90;;;;;;5075221;28;20044;-82
2022/07/05 11:40:05;;;;;;;3.80;1.25;;;19.60;99.90;;;;;;5076850;28;20056;-78
2022/07/05 11:42:33;;;;;;;4.40;1.33;;;19.50;99.90;;;;;;5076625;28;20040;-79
2022/07/05 11:44:59;;;;;;;4.25;1.58;;;19.40;99.90;;;;;;5076751;28;20036;-79
2022/07/05 11:47:26;;;;;;;7.32;1.48;;;19.30;99.90;;;;;;5076654;28;20449;-77
2022/07/05 11:49:58;;;;;;;5.25;1.10;;;19.10;99.90;;;;;;5076376;28;20051;-79
2022/07/05 11:52:29;;;;;;;5.78;1.35;;;19.20;99.90;;;;;;5076624;28;20094;-84
2022/07/05 11:54:56;;;;;;;5.88;1.40;;;19.10;99.90;;;;;;5076590;28;20036;-85
2022/07/05 11:57:23;;;;;;;3.53;1.40;;;19.00;99.90;;;;;;5076321;28;20049;-78
2022/07/05 11:59:49;;;;;;;4.82;1.50;;;18.90;99.90;;;;;;5076308;28;20045;-78
2022/07/05 12:02:15;;;;;;;6.30;1.73;;;18.90;99.90;;;;;;5074562;28;20059;-78
2022/07/05 12:04:46;;;;;;;5.13;1.67;;;18.90;99.90;;;;;;5075803;28;20040;-79
2022/07/05 12:07:12;;;;;;;4.13;1.50;;;19.10;99.90;;;;;;5076074;28;20121;-78
2022/07/05 12:12:42;;;;;;;9.77;1.88;;;19.20;99.90;;;;;;5075772;28;20052;-79
2022/07/05 12:15:18;;;;;;;8.38;2.08;;;19.20;99.90;;;;;;5074500;28;20076;-79
2022/07/05 12:17:46;;;;;;;5.10;1.90;;;19.30;99.90;;;;;;5075844;28;20044;-80
2022/07/05 12:20:14;;;;;;;9.50;1.88;;;19.20;99.90;;;;;;5074178;28;20044;-78
2022/07/05 12:22:44;;;;;;;6.70;1.50;;;19.10;99.90;;;;;;5074809;28;20044;-79
2022/07/05 12:25:17;;;;;;;6.68;1.90;;;18.80;99.90;;;;;;5074480;28;20044;-78
2022/07/05 12:27:44;;;;;;;10.63;3.05;;;18.70;99.90;;;;;;5074429;28;20510;-78
2022/07/05 12:30:11;;;;;;;7.00;1.92;;;18.60;99.90;;;;;;5075722;28;20040;-78
2022/07/05 12:32:57;;;;;;;7.22;1.75;;;18.60;99.90;;;;;;5075374;28;20048;-79
2022/07/05 12:35:28;;;;;;;7.95;1.88;;;18.30;99.90;;;;;;5075375;28;20051;-79
2022/07/05 12:37:53;;;;;;;6.45;1.80;;;18.30;99.90;;;;;;5075201;28;20037;-78
2022/07/05 12:40:22;;;;;;;9.82;2.55;;;18.30;99.90;;;;;;5074221;28;20048;-78
2022/07/05 12:43:09;;;;;;;9.73;2.15;;;18.30;99.90;;;;;;5075366;28;20044;-78
2022/07/05 12:45:36;;;;;;;6.35;1.73;;;18.30;99.90;;;;;;5075443;28;20051;-78
2022/07/05 12:48:04;;;;;;;9.07;1.90;;;18.40;99.90;;;;;;5075064;28;20044;-79
2022/07/05 12:50:49;;;;;;;6.28;1.65;;;18.50;99.90;;;;;;5075301;28;20062;-79
2022/07/05 12:58:57;;;;;;;4.15;1.83;;;18.70;99.90;;;;;;5074896;28;20091;-78